EXS65Q LEIB-EGNT
Flight info
| Callsign | EXS65Q |
|---|---|
| Flight time | 2h 31m |
| Altitude | 36000 |
| Route | EPAMA DCT MARTA DCT EBROX DCT UMURE N863 GIROM DCT AGN DCT SECHE DCT UVELI DCT CNA DCT TUPAR UN861 ANG DCT AKIKI UN867 AVANT UM184 HEMEL/N0437F370 Q3 MOGLI/N0435F360 L613 MAMUL UY250 RIMTO |
| Aircraft | B738/M-SDE2E3FGHIRWXY/LB1 |
Departure
| Time | 2026-05-06 07:50 |
|---|---|
| Airport | Ibiza Airport (LEIB) |
Arrival
| Time | 2026-05-06 10:21 |
|---|---|
| Airport | Newcastle International Airport (EGNT) |
| Time | Latitude | Longitude | Altitude | Speed | Heading |
|---|---|---|---|---|---|
| 2026-05-06 07:38 | 38.87546 | 1.37211 | 7 ft | 0 kts | 332° |
| 2026-05-06 07:44 | 38.87552 | 1.37207 | 7 ft | 3 kts | 332° |
| 2026-05-06 07:44 | 38.87579 | 1.37176 | 7 ft | 7 kts | 289° |
| 2026-05-06 07:44 | 38.87564 | 1.37106 | 7 ft | 10 kts | 246° |
| 2026-05-06 07:44 | 38.87526 | 1.37013 | 7 ft | 13 kts | 241° |
| 2026-05-06 07:45 | 38.87477 | 1.36895 | 8 ft | 16 kts | 242° |
| 2026-05-06 07:45 | 38.87446 | 1.36820 | 8 ft | 8 kts | 242° |
| 2026-05-06 07:45 | 38.87398 | 1.36801 | 7 ft | 8 kts | 158° |
| 2026-05-06 07:45 | 38.87348 | 1.36833 | 7 ft | 8 kts | 153° |
| 2026-05-06 07:46 | 38.87297 | 1.36853 | 8 ft | 8 kts | 193° |
| 2026-05-06 07:46 | 38.87256 | 1.36791 | 8 ft | 11 kts | 242° |
| 2026-05-06 07:46 | 38.87218 | 1.36699 | 8 ft | 12 kts | 243° |
| 2026-05-06 07:46 | 38.87181 | 1.36606 | 7 ft | 12 kts | 242° |
| 2026-05-06 07:47 | 38.87136 | 1.36499 | 7 ft | 15 kts | 242° |
| 2026-05-06 07:47 | 38.87081 | 1.36365 | 7 ft | 19 kts | 242° |
| 2026-05-06 07:47 | 38.87014 | 1.36202 | 7 ft | 22 kts | 242° |
| 2026-05-06 07:47 | 38.86944 | 1.36034 | 8 ft | 21 kts | 242° |
| 2026-05-06 07:48 | 38.86881 | 1.35879 | 7 ft | 14 kts | 242° |
| 2026-05-06 07:48 | 38.86831 | 1.35818 | 7 ft | 10 kts | 176° |
| 2026-05-06 07:48 | 38.86766 | 1.35858 | 5 ft | 11 kts | 150° |
| 2026-05-06 07:48 | 38.86713 | 1.35921 | 5 ft | 11 kts | 95° |
| 2026-05-06 07:49 | 38.86745 | 1.36010 | 6 ft | 12 kts | 62° |
| 2026-05-06 07:49 | 38.86855 | 1.36275 | 5 ft | 67 kts | 62° |
| 2026-05-06 07:49 | 38.87184 | 1.37068 | 10 ft | 132 kts | 62° |
| 2026-05-06 07:49 | 38.87675 | 1.38285 | 278 ft | 161 kts | 62° |
| 2026-05-06 07:50 | 38.88174 | 1.39594 | 1004 ft | 167 kts | 69° |
| 2026-05-06 07:50 | 38.88433 | 1.41046 | 1766 ft | 175 kts | 80° |
| 2026-05-06 07:50 | 38.88682 | 1.42646 | 2342 ft | 193 kts | 75° |
| 2026-05-06 07:50 | 38.89022 | 1.44357 | 2907 ft | 203 kts | 75° |
| 2026-05-06 07:51 | 38.89368 | 1.46155 | 3503 ft | 211 kts | 76° |
| 2026-05-06 07:51 | 38.89707 | 1.48015 | 4135 ft | 217 kts | 76° |
| 2026-05-06 07:51 | 38.90047 | 1.49932 | 4786 ft | 222 kts | 76° |
| 2026-05-06 07:51 | 38.90391 | 1.51884 | 5431 ft | 225 kts | 77° |
| 2026-05-06 07:52 | 38.90844 | 1.53827 | 6077 ft | 230 kts | 61° |
| 2026-05-06 07:52 | 38.91847 | 1.55509 | 6456 ft | 247 kts | 44° |
| 2026-05-06 07:52 | 38.93158 | 1.57020 | 6908 ft | 259 kts | 40° |
| 2026-05-06 07:52 | 38.94593 | 1.58602 | 7258 ft | 281 kts | 40° |
| 2026-05-06 07:53 | 38.96089 | 1.60279 | 8005 ft | 287 kts | 40° |
| 2026-05-06 07:53 | 38.97596 | 1.61997 | 8835 ft | 291 kts | 40° |
| 2026-05-06 07:53 | 38.99118 | 1.63742 | 9604 ft | 297 kts | 40° |
| 2026-05-06 07:53 | 39.00853 | 1.65188 | 10244 ft | 300 kts | 15° |
| 2026-05-06 07:54 | 39.02870 | 1.65676 | 10958 ft | 299 kts | 2° |
| 2026-05-06 07:54 | 39.04955 | 1.65934 | 11665 ft | 304 kts | 1° |
| 2026-05-06 07:54 | 39.07087 | 1.66193 | 12372 ft | 310 kts | 1° |
| 2026-05-06 07:54 | 39.09247 | 1.66380 | 13093 ft | 311 kts | 351° |
| 2026-05-06 07:55 | 39.11337 | 1.65678 | 13538 ft | 318 kts | 333° |
| 2026-05-06 07:55 | 39.13442 | 1.64515 | 13744 ft | 340 kts | 331° |
| 2026-05-06 07:55 | 39.15644 | 1.63245 | 14148 ft | 352 kts | 331° |
| 2026-05-06 07:55 | 39.17901 | 1.61943 | 14772 ft | 357 kts | 331° |
| 2026-05-06 07:56 | 39.20179 | 1.60640 | 15464 ft | 360 kts | 332° |
| 2026-05-06 07:56 | 39.22484 | 1.59332 | 16124 ft | 364 kts | 332° |
| 2026-05-06 07:56 | 39.24792 | 1.58028 | 16759 ft | 368 kts | 332° |
| 2026-05-06 07:56 | 39.27161 | 1.56694 | 17401 ft | 373 kts | 332° |
| 2026-05-06 07:57 | 39.29564 | 1.55343 | 18041 ft | 377 kts | 332° |
| 2026-05-06 07:57 | 39.31984 | 1.53983 | 18619 ft | 381 kts | 332° |
| 2026-05-06 07:57 | 39.34432 | 1.52607 | 19227 ft | 384 kts | 332° |
| 2026-05-06 07:57 | 39.36886 | 1.51227 | 19862 ft | 385 kts | 331° |
| 2026-05-06 07:58 | 39.39323 | 1.49856 | 20448 ft | 388 kts | 331° |
| 2026-05-06 07:58 | 39.41806 | 1.48456 | 20996 ft | 391 kts | 331° |
| 2026-05-06 07:58 | 39.44318 | 1.47039 | 21532 ft | 395 kts | 331° |
| 2026-05-06 07:58 | 39.46844 | 1.45613 | 22085 ft | 398 kts | 331° |
| 2026-05-06 07:59 | 39.49395 | 1.44172 | 22634 ft | 400 kts | 330° |
| 2026-05-06 07:59 | 39.51936 | 1.42736 | 23158 ft | 404 kts | 330° |
| 2026-05-06 07:59 | 39.54519 | 1.41275 | 23652 ft | 407 kts | 330° |
| 2026-05-06 07:59 | 39.57120 | 1.39802 | 24109 ft | 409 kts | 330° |
| 2026-05-06 08:00 | 39.59745 | 1.38337 | 24584 ft | 412 kts | 333° |
| 2026-05-06 08:00 | 39.62573 | 1.37487 | 25001 ft | 426 kts | 348° |
| 2026-05-06 08:00 | 39.65540 | 1.37115 | 25443 ft | 429 kts | 348° |
| 2026-05-06 08:00 | 39.68532 | 1.36779 | 25842 ft | 432 kts | 349° |
| 2026-05-06 08:01 | 39.71538 | 1.36439 | 26230 ft | 435 kts | 348° |
| 2026-05-06 08:01 | 39.74560 | 1.36081 | 26633 ft | 437 kts | 348° |
| 2026-05-06 08:01 | 39.77588 | 1.35706 | 27043 ft | 439 kts | 348° |
| 2026-05-06 08:01 | 39.80642 | 1.35314 | 27453 ft | 441 kts | 347° |
| 2026-05-06 08:02 | 39.83716 | 1.34910 | 27783 ft | 445 kts | 347° |
| 2026-05-06 08:02 | 39.86806 | 1.34500 | 28127 ft | 448 kts | 347° |
| 2026-05-06 08:02 | 39.89920 | 1.34085 | 28503 ft | 450 kts | 347° |
| 2026-05-06 08:02 | 39.93005 | 1.33675 | 28868 ft | 452 kts | 347° |
| 2026-05-06 08:03 | 39.96141 | 1.33258 | 29215 ft | 454 kts | 347° |
| 2026-05-06 08:03 | 39.99292 | 1.32838 | 29551 ft | 456 kts | 347° |
| 2026-05-06 08:03 | 40.02460 | 1.32416 | 29916 ft | 459 kts | 347° |
| 2026-05-06 08:03 | 40.05645 | 1.31992 | 30182 ft | 462 kts | 347° |
| 2026-05-06 08:04 | 40.08849 | 1.31565 | 30432 ft | 464 kts | 347° |
| 2026-05-06 08:04 | 40.12067 | 1.31137 | 30789 ft | 463 kts | 347° |
| 2026-05-06 08:04 | 40.15272 | 1.30712 | 31225 ft | 461 kts | 346° |
| 2026-05-06 08:04 | 40.18453 | 1.30289 | 31643 ft | 459 kts | 346° |
| 2026-05-06 08:05 | 40.21625 | 1.29865 | 31995 ft | 458 kts | 346° |
| 2026-05-06 08:05 | 40.24769 | 1.29443 | 32351 ft | 458 kts | 346° |
| 2026-05-06 08:05 | 40.27938 | 1.29017 | 32720 ft | 457 kts | 346° |
| 2026-05-06 08:05 | 40.31100 | 1.28593 | 33127 ft | 455 kts | 346° |
| 2026-05-06 08:06 | 40.34244 | 1.28171 | 33487 ft | 454 kts | 346° |
| 2026-05-06 08:06 | 40.37390 | 1.27747 | 33810 ft | 453 kts | 346° |
| 2026-05-06 08:06 | 40.40520 | 1.27325 | 34105 ft | 453 kts | 346° |
| 2026-05-06 08:06 | 40.43659 | 1.26900 | 34378 ft | 452 kts | 346° |
| 2026-05-06 08:07 | 40.46798 | 1.26476 | 34625 ft | 453 kts | 346° |
| 2026-05-06 08:07 | 40.49933 | 1.26050 | 34869 ft | 453 kts | 346° |
| 2026-05-06 08:07 | 40.53071 | 1.25625 | 35105 ft | 453 kts | 346° |
| 2026-05-06 08:07 | 40.56210 | 1.25199 | 35370 ft | 453 kts | 346° |
| 2026-05-06 08:08 | 40.59341 | 1.24774 | 35622 ft | 452 kts | 346° |
| 2026-05-06 08:08 | 40.62464 | 1.24350 | 35862 ft | 452 kts | 347° |
| 2026-05-06 08:08 | 40.65598 | 1.23922 | 35978 ft | 454 kts | 347° |
| 2026-05-06 08:08 | 40.68756 | 1.23491 | 35970 ft | 457 kts | 347° |
| 2026-05-06 08:09 | 40.75084 | 1.22627 | 35966 ft | 456 kts | 347° |
| 2026-05-06 08:09 | 40.80290 | 1.21915 | 35969 ft | 450 kts | 347° |
| 2026-05-06 08:10 | 40.86504 | 1.21056 | 35977 ft | 449 kts | 347° |
| 2026-05-06 08:10 | 40.92698 | 1.20197 | 35990 ft | 449 kts | 347° |
| 2026-05-06 08:11 | 40.98919 | 1.19334 | 35977 ft | 450 kts | 347° |
| 2026-05-06 08:11 | 41.05154 | 1.18469 | 35966 ft | 450 kts | 347° |
| 2026-05-06 08:12 | 41.11398 | 1.17602 | 35974 ft | 451 kts | 347° |
| 2026-05-06 08:12 | 41.17663 | 1.16771 | 35974 ft | 453 kts | 348° |
| 2026-05-06 08:13 | 41.23941 | 1.16134 | 35967 ft | 455 kts | 349° |
| 2026-05-06 08:13 | 41.30260 | 1.15498 | 35961 ft | 456 kts | 348° |
| 2026-05-06 08:14 | 41.36592 | 1.14840 | 35988 ft | 457 kts | 349° |
| 2026-05-06 08:14 | 41.42949 | 1.14184 | 35987 ft | 458 kts | 349° |
| 2026-05-06 08:15 | 41.49300 | 1.13529 | 35991 ft | 457 kts | 349° |
| 2026-05-06 08:15 | 41.55646 | 1.12869 | 35980 ft | 457 kts | 348° |
| 2026-05-06 08:16 | 41.61949 | 1.12173 | 35999 ft | 457 kts | 348° |
| 2026-05-06 08:16 | 41.68300 | 1.11466 | 35997 ft | 456 kts | 348° |
| 2026-05-06 08:17 | 41.74591 | 1.10788 | 35993 ft | 455 kts | 349° |
| 2026-05-06 08:17 | 41.80903 | 1.10132 | 36005 ft | 455 kts | 349° |
| 2026-05-06 08:18 | 41.87212 | 1.09474 | 36013 ft | 454 kts | 349° |
| 2026-05-06 08:18 | 41.93503 | 1.08812 | 36014 ft | 453 kts | 349° |
| 2026-05-06 08:19 | 41.99784 | 1.08149 | 36034 ft | 453 kts | 349° |
| 2026-05-06 08:19 | 42.06064 | 1.07484 | 36007 ft | 453 kts | 349° |
| 2026-05-06 08:20 | 42.12343 | 1.06819 | 35997 ft | 453 kts | 349° |
| 2026-05-06 08:20 | 42.18593 | 1.06147 | 35996 ft | 452 kts | 349° |
| 2026-05-06 08:21 | 42.24883 | 1.05453 | 35976 ft | 453 kts | 349° |
| 2026-05-06 08:21 | 42.31182 | 1.04759 | 35972 ft | 454 kts | 349° |
| 2026-05-06 08:22 | 42.37442 | 1.04069 | 35973 ft | 453 kts | 349° |
| 2026-05-06 08:22 | 42.43739 | 1.03374 | 35974 ft | 453 kts | 349° |
| 2026-05-06 08:23 | 42.50027 | 1.02690 | 35976 ft | 452 kts | 349° |
| 2026-05-06 08:23 | 42.56302 | 1.02012 | 35959 ft | 452 kts | 349° |
| 2026-05-06 08:24 | 42.62532 | 1.01336 | 35983 ft | 450 kts | 349° |
| 2026-05-06 08:24 | 42.68784 | 1.00653 | 35968 ft | 451 kts | 349° |
| 2026-05-06 08:25 | 42.75047 | 0.99968 | 35968 ft | 452 kts | 349° |
| 2026-05-06 08:25 | 42.81335 | 0.99280 | 35977 ft | 453 kts | 349° |
| 2026-05-06 08:26 | 42.87604 | 0.98591 | 35952 ft | 455 kts | 349° |
| 2026-05-06 08:26 | 42.93906 | 0.97900 | 35969 ft | 454 kts | 349° |
| 2026-05-06 08:27 | 43.00216 | 0.97207 | 35975 ft | 456 kts | 349° |
| 2026-05-06 08:27 | 43.06550 | 0.96508 | 35981 ft | 456 kts | 350° |
| 2026-05-06 08:28 | 43.12884 | 0.95808 | 35973 ft | 456 kts | 350° |
| 2026-05-06 08:28 | 43.19222 | 0.95106 | 35971 ft | 456 kts | 350° |
| 2026-05-06 08:29 | 43.25512 | 0.94408 | 35989 ft | 456 kts | 350° |
| 2026-05-06 08:29 | 43.31840 | 0.93704 | 35973 ft | 456 kts | 350° |
| 2026-05-06 08:30 | 43.38162 | 0.93000 | 35967 ft | 455 kts | 350° |
| 2026-05-06 08:30 | 43.44434 | 0.92299 | 35980 ft | 454 kts | 351° |
| 2026-05-06 08:31 | 43.50733 | 0.91594 | 35975 ft | 454 kts | 351° |
| 2026-05-06 08:31 | 43.57027 | 0.90888 | 35968 ft | 453 kts | 351° |
| 2026-05-06 08:32 | 43.63312 | 0.90181 | 35987 ft | 452 kts | 351° |
| 2026-05-06 08:32 | 43.69553 | 0.89478 | 35963 ft | 452 kts | 351° |
| 2026-05-06 08:33 | 43.75836 | 0.88769 | 35955 ft | 452 kts | 351° |
| 2026-05-06 08:33 | 43.82097 | 0.88060 | 35947 ft | 451 kts | 351° |
| 2026-05-06 08:34 | 43.91274 | 0.85859 | 35945 ft | 441 kts | 333° |
| 2026-05-06 08:35 | 43.96841 | 0.82271 | 35979 ft | 444 kts | 330° |
| 2026-05-06 08:35 | 44.02454 | 0.78539 | 36287 ft | 447 kts | 331° |
| 2026-05-06 08:35 | 44.05229 | 0.76718 | 36569 ft | 446 kts | 332° |
| 2026-05-06 08:36 | 44.08045 | 0.74882 | 36834 ft | 445 kts | 332° |
| 2026-05-06 08:36 | 44.10850 | 0.73061 | 37078 ft | 445 kts | 332° |
| 2026-05-06 08:36 | 44.13658 | 0.71240 | 37260 ft | 446 kts | 332° |
| 2026-05-06 08:36 | 44.16480 | 0.69409 | 37408 ft | 447 kts | 332° |
| 2026-05-06 08:37 | 44.19291 | 0.67582 | 37615 ft | 447 kts | 332° |
| 2026-05-06 08:37 | 44.22119 | 0.65743 | 37823 ft | 446 kts | 332° |
| 2026-05-06 08:37 | 44.24935 | 0.63909 | 37940 ft | 448 kts | 332° |
| 2026-05-06 08:38 | 44.30617 | 0.60200 | 37928 ft | 450 kts | 332° |
| 2026-05-06 08:38 | 44.36271 | 0.56504 | 37923 ft | 447 kts | 332° |
| 2026-05-06 08:39 | 44.41869 | 0.52836 | 37916 ft | 445 kts | 332° |
| 2026-05-06 08:39 | 44.47480 | 0.49141 | 37919 ft | 443 kts | 332° |
| 2026-05-06 08:40 | 44.53013 | 0.45469 | 37916 ft | 442 kts | 332° |
| 2026-05-06 08:40 | 44.58572 | 0.41770 | 37922 ft | 442 kts | 332° |
| 2026-05-06 08:41 | 44.64150 | 0.38052 | 37923 ft | 443 kts | 332° |
| 2026-05-06 08:41 | 44.69733 | 0.34324 | 37913 ft | 445 kts | 332° |
| 2026-05-06 08:42 | 44.75344 | 0.30570 | 37913 ft | 446 kts | 332° |
| 2026-05-06 08:42 | 44.80960 | 0.26805 | 37919 ft | 448 kts | 332° |
| 2026-05-06 08:43 | 44.86563 | 0.23039 | 37908 ft | 449 kts | 332° |
| 2026-05-06 08:43 | 44.92219 | 0.19230 | 37923 ft | 451 kts | 332° |
| 2026-05-06 08:44 | 44.97906 | 0.15391 | 37891 ft | 454 kts | 332° |
| 2026-05-06 08:44 | 45.03615 | 0.11531 | 37895 ft | 454 kts | 332° |
| 2026-05-06 08:45 | 45.09317 | 0.07669 | 37889 ft | 453 kts | 332° |
| 2026-05-06 08:45 | 45.14955 | 0.03844 | 37888 ft | 451 kts | 332° |
| 2026-05-06 08:46 | 45.20600 | 0.00004 | 37909 ft | 448 kts | 332° |
| 2026-05-06 08:46 | 45.26210 | -0.03821 | 37898 ft | 446 kts | 333° |
| 2026-05-06 08:47 | 45.31800 | -0.07641 | 37891 ft | 444 kts | 332° |
| 2026-05-06 08:47 | 45.37332 | -0.11430 | 37890 ft | 443 kts | 332° |
| 2026-05-06 08:48 | 45.42882 | -0.15240 | 37899 ft | 442 kts | 333° |
| 2026-05-06 08:48 | 45.48428 | -0.19055 | 37880 ft | 442 kts | 332° |
| 2026-05-06 08:49 | 45.53961 | -0.22869 | 37892 ft | 441 kts | 332° |
| 2026-05-06 08:49 | 45.59491 | -0.26690 | 37898 ft | 441 kts | 333° |
| 2026-05-06 08:50 | 45.65017 | -0.30515 | 37885 ft | 442 kts | 333° |
| 2026-05-06 08:50 | 45.70804 | -0.33605 | 37888 ft | 445 kts | 341° |
| 2026-05-06 08:51 | 45.76707 | -0.36149 | 37898 ft | 446 kts | 342° |
| 2026-05-06 08:51 | 45.82659 | -0.38739 | 37903 ft | 448 kts | 341° |
| 2026-05-06 08:52 | 45.88619 | -0.41410 | 37895 ft | 450 kts | 341° |
| 2026-05-06 08:52 | 45.94591 | -0.44123 | 37889 ft | 450 kts | 341° |
| 2026-05-06 08:53 | 46.00572 | -0.46849 | 37899 ft | 450 kts | 341° |
| 2026-05-06 08:53 | 46.06542 | -0.49575 | 37902 ft | 451 kts | 341° |
| 2026-05-06 08:54 | 46.12525 | -0.52310 | 37898 ft | 450 kts | 341° |
| 2026-05-06 08:54 | 46.18491 | -0.55045 | 37906 ft | 450 kts | 341° |
| 2026-05-06 08:55 | 46.23461 | -0.57327 | 37907 ft | 450 kts | 341° |
| 2026-05-06 08:55 | 46.30404 | -0.60524 | 37896 ft | 450 kts | 341° |
| 2026-05-06 08:56 | 46.35359 | -0.62811 | 37895 ft | 449 kts | 341° |
| 2026-05-06 08:56 | 46.41316 | -0.65563 | 37901 ft | 448 kts | 341° |
| 2026-05-06 08:57 | 46.47447 | -0.67248 | 37921 ft | 448 kts | 352° |
| 2026-05-06 08:57 | 46.53619 | -0.68198 | 37911 ft | 448 kts | 353° |
| 2026-05-06 08:58 | 46.59855 | -0.69165 | 37905 ft | 448 kts | 352° |
| 2026-05-06 08:58 | 46.66022 | -0.70176 | 37911 ft | 448 kts | 352° |
| 2026-05-06 08:59 | 46.72246 | -0.71224 | 37909 ft | 449 kts | 352° |
| 2026-05-06 08:59 | 46.78462 | -0.72278 | 37909 ft | 449 kts | 352° |
| 2026-05-06 09:00 | 46.84645 | -0.73328 | 37917 ft | 450 kts | 352° |
| 2026-05-06 09:00 | 46.90882 | -0.74388 | 37920 ft | 451 kts | 352° |
| 2026-05-06 09:01 | 46.97128 | -0.75451 | 37929 ft | 452 kts | 352° |
| 2026-05-06 09:01 | 47.03377 | -0.76518 | 37919 ft | 452 kts | 352° |
| 2026-05-06 09:02 | 47.09641 | -0.77589 | 37918 ft | 453 kts | 352° |
| 2026-05-06 09:02 | 47.15857 | -0.78656 | 37923 ft | 453 kts | 352° |
| 2026-05-06 09:03 | 47.22114 | -0.79731 | 37916 ft | 453 kts | 352° |
| 2026-05-06 09:03 | 47.28387 | -0.80812 | 37918 ft | 452 kts | 352° |
| 2026-05-06 09:04 | 47.34631 | -0.81890 | 37930 ft | 451 kts | 352° |
| 2026-05-06 09:04 | 47.40876 | -0.82971 | 37934 ft | 451 kts | 352° |
| 2026-05-06 09:05 | 47.47103 | -0.84052 | 37939 ft | 450 kts | 352° |
| 2026-05-06 09:05 | 47.53316 | -0.85133 | 37930 ft | 449 kts | 352° |
| 2026-05-06 09:06 | 47.59441 | -0.86565 | 37939 ft | 447 kts | 349° |
| 2026-05-06 09:06 | 47.65560 | -0.88255 | 37940 ft | 446 kts | 349° |
| 2026-05-06 09:07 | 47.71681 | -0.89942 | 37950 ft | 448 kts | 349° |
| 2026-05-06 09:07 | 47.77822 | -0.91598 | 37938 ft | 447 kts | 349° |
| 2026-05-06 09:08 | 47.83910 | -0.93225 | 37940 ft | 447 kts | 349° |
| 2026-05-06 09:08 | 47.90031 | -0.94860 | 37940 ft | 446 kts | 349° |
| 2026-05-06 09:09 | 47.96135 | -0.96495 | 37939 ft | 445 kts | 349° |
| 2026-05-06 09:09 | 48.02233 | -0.98133 | 37951 ft | 445 kts | 349° |
| 2026-05-06 09:10 | 48.08346 | -0.99780 | 37943 ft | 446 kts | 349° |
| 2026-05-06 09:10 | 48.14458 | -1.01431 | 37939 ft | 446 kts | 349° |
| 2026-05-06 09:11 | 48.20527 | -1.03074 | 37953 ft | 446 kts | 349° |
| 2026-05-06 09:11 | 48.26640 | -1.04732 | 37944 ft | 446 kts | 348° |
| 2026-05-06 09:12 | 48.32764 | -1.06398 | 37952 ft | 446 kts | 348° |
| 2026-05-06 09:12 | 48.38877 | -1.08065 | 37943 ft | 446 kts | 349° |
| 2026-05-06 09:13 | 48.44978 | -1.09732 | 37953 ft | 445 kts | 348° |
| 2026-05-06 09:13 | 48.51071 | -1.11401 | 37950 ft | 445 kts | 348° |
| 2026-05-06 09:14 | 48.57119 | -1.13063 | 37953 ft | 444 kts | 348° |
| 2026-05-06 09:14 | 48.63215 | -1.14742 | 37956 ft | 444 kts | 348° |
| 2026-05-06 09:15 | 48.69293 | -1.16419 | 37955 ft | 444 kts | 348° |
| 2026-05-06 09:15 | 48.75370 | -1.18101 | 37954 ft | 443 kts | 348° |
| 2026-05-06 09:16 | 48.81409 | -1.19776 | 37952 ft | 443 kts | 349° |
| 2026-05-06 09:16 | 48.87477 | -1.21463 | 37963 ft | 443 kts | 348° |
| 2026-05-06 09:17 | 48.93539 | -1.23152 | 37964 ft | 443 kts | 348° |
| 2026-05-06 09:17 | 48.99602 | -1.24847 | 37963 ft | 443 kts | 348° |
| 2026-05-06 09:18 | 49.05674 | -1.26548 | 37968 ft | 443 kts | 348° |
| 2026-05-06 09:18 | 49.11752 | -1.28255 | 37960 ft | 444 kts | 349° |
| 2026-05-06 09:19 | 49.17798 | -1.29957 | 37970 ft | 444 kts | 349° |
| 2026-05-06 09:19 | 49.23886 | -1.31675 | 37967 ft | 445 kts | 348° |
| 2026-05-06 09:20 | 49.29983 | -1.33400 | 37969 ft | 446 kts | 348° |
| 2026-05-06 09:20 | 49.36091 | -1.35133 | 37969 ft | 446 kts | 348° |
| 2026-05-06 09:21 | 49.42212 | -1.36873 | 37968 ft | 447 kts | 348° |
| 2026-05-06 09:21 | 49.48327 | -1.38617 | 37969 ft | 447 kts | 348° |
| 2026-05-06 09:22 | 49.54449 | -1.40367 | 37975 ft | 447 kts | 348° |
| 2026-05-06 09:22 | 49.60609 | -1.41693 | 37952 ft | 448 kts | 359° |
| 2026-05-06 09:23 | 49.66794 | -1.41173 | 37963 ft | 448 kts | 2° |
| 2026-05-06 09:23 | 49.73026 | -1.40488 | 37961 ft | 448 kts | 2° |
| 2026-05-06 09:24 | 49.79240 | -1.39882 | 37967 ft | 446 kts | 2° |
| 2026-05-06 09:24 | 49.85444 | -1.39320 | 37977 ft | 445 kts | 2° |
| 2026-05-06 09:25 | 49.91571 | -1.38446 | 37951 ft | 447 kts | 12° |
| 2026-05-06 09:25 | 49.97552 | -1.35850 | 38000 ft | 447 kts | 15° |
| 2026-05-06 09:26 | 50.03508 | -1.33058 | 37996 ft | 446 kts | 15° |
| 2026-05-06 09:26 | 50.09476 | -1.30323 | 37991 ft | 446 kts | 15° |
| 2026-05-06 09:27 | 50.15446 | -1.27644 | 37991 ft | 446 kts | 14° |
| 2026-05-06 09:27 | 50.21383 | -1.24996 | 37994 ft | 447 kts | 14° |
| 2026-05-06 09:28 | 50.27373 | -1.22319 | 37982 ft | 448 kts | 14° |
| 2026-05-06 09:28 | 50.33364 | -1.19634 | 37990 ft | 448 kts | 14° |
| 2026-05-06 09:29 | 50.39386 | -1.16926 | 37979 ft | 449 kts | 14° |
| 2026-05-06 09:29 | 50.45359 | -1.14232 | 37983 ft | 450 kts | 14° |
| 2026-05-06 09:30 | 50.51392 | -1.11505 | 38003 ft | 450 kts | 14° |
| 2026-05-06 09:30 | 50.57432 | -1.08766 | 37995 ft | 451 kts | 14° |
| 2026-05-06 09:31 | 50.63437 | -1.06037 | 37995 ft | 451 kts | 14° |
| 2026-05-06 09:31 | 50.69480 | -1.03283 | 37985 ft | 452 kts | 14° |
| 2026-05-06 09:32 | 50.75525 | -1.00520 | 37985 ft | 452 kts | 14° |
| 2026-05-06 09:32 | 50.81454 | -0.97804 | 37988 ft | 452 kts | 15° |
| 2026-05-06 09:33 | 50.87499 | -0.95027 | 37995 ft | 452 kts | 14° |
| 2026-05-06 09:33 | 50.93496 | -0.92264 | 37985 ft | 452 kts | 15° |
| 2026-05-06 09:34 | 50.99534 | -0.89475 | 37988 ft | 452 kts | 15° |
| 2026-05-06 09:34 | 51.05404 | -0.86756 | 37993 ft | 452 kts | 14° |
| 2026-05-06 09:35 | 51.11255 | -0.84040 | 37994 ft | 452 kts | 15° |
| 2026-05-06 09:35 | 51.17031 | -0.81350 | 37997 ft | 452 kts | 15° |
| 2026-05-06 09:36 | 51.23038 | -0.78546 | 37994 ft | 452 kts | 15° |
| 2026-05-06 09:36 | 51.28935 | -0.75785 | 37996 ft | 452 kts | 15° |
| 2026-05-06 09:37 | 51.34986 | -0.72945 | 38001 ft | 452 kts | 15° |
| 2026-05-06 09:37 | 51.40984 | -0.70122 | 37989 ft | 452 kts | 15° |
| 2026-05-06 09:38 | 51.47022 | -0.67273 | 37995 ft | 452 kts | 15° |
| 2026-05-06 09:38 | 51.53060 | -0.64416 | 37992 ft | 452 kts | 15° |
| 2026-05-06 09:39 | 51.59095 | -0.61551 | 37991 ft | 452 kts | 15° |
| 2026-05-06 09:39 | 51.65094 | -0.58697 | 37996 ft | 452 kts | 15° |
| 2026-05-06 09:40 | 51.71127 | -0.55818 | 38009 ft | 452 kts | 15° |
| 2026-05-06 09:40 | 51.79897 | -0.51619 | 37990 ft | 453 kts | 15° |
| 2026-05-06 09:41 | 51.84925 | -0.49204 | 37995 ft | 454 kts | 15° |
| 2026-05-06 09:41 | 51.90988 | -0.46283 | 37993 ft | 454 kts | 15° |
| 2026-05-06 09:42 | 51.97051 | -0.43355 | 37991 ft | 454 kts | 15° |
| 2026-05-06 09:42 | 52.03060 | -0.40444 | 37991 ft | 454 kts | 15° |
| 2026-05-06 09:43 | 52.09117 | -0.37502 | 38012 ft | 454 kts | 15° |
| 2026-05-06 09:43 | 52.15175 | -0.34551 | 38006 ft | 454 kts | 15° |
| 2026-05-06 09:44 | 52.21234 | -0.31592 | 38004 ft | 454 kts | 15° |
| 2026-05-06 09:44 | 52.27262 | -0.28714 | 37985 ft | 453 kts | 9° |
| 2026-05-06 09:45 | 52.30378 | -0.28358 | 38004 ft | 448 kts | 352° |
| 2026-05-06 09:45 | 52.33417 | -0.29311 | 37983 ft | 444 kts | 338° |
| 2026-05-06 09:45 | 52.38934 | -0.33813 | 37439 ft | 444 kts | 329° |
| 2026-05-06 09:46 | 52.41605 | -0.36274 | 37062 ft | 438 kts | 328° |
| 2026-05-06 09:46 | 52.44250 | -0.38716 | 36668 ft | 434 kts | 328° |
| 2026-05-06 09:46 | 52.46879 | -0.41123 | 36293 ft | 430 kts | 328° |
| 2026-05-06 09:46 | 52.49489 | -0.43490 | 35921 ft | 426 kts | 329° |
| 2026-05-06 09:47 | 52.52074 | -0.45821 | 35544 ft | 422 kts | 329° |
| 2026-05-06 09:47 | 52.54647 | -0.48131 | 35163 ft | 419 kts | 329° |
| 2026-05-06 09:47 | 52.57196 | -0.50418 | 34787 ft | 416 kts | 329° |
| 2026-05-06 09:47 | 52.59727 | -0.52690 | 34407 ft | 413 kts | 329° |
| 2026-05-06 09:48 | 52.62242 | -0.54950 | 34037 ft | 410 kts | 329° |
| 2026-05-06 09:48 | 52.64712 | -0.57174 | 33603 ft | 408 kts | 329° |
| 2026-05-06 09:48 | 52.67192 | -0.59409 | 33195 ft | 405 kts | 329° |
| 2026-05-06 09:48 | 52.69648 | -0.61626 | 32832 ft | 400 kts | 329° |
| 2026-05-06 09:49 | 52.72090 | -0.63833 | 32449 ft | 397 kts | 329° |
| 2026-05-06 09:49 | 52.74503 | -0.66016 | 32098 ft | 393 kts | 329° |
| 2026-05-06 09:49 | 52.76896 | -0.68186 | 31738 ft | 390 kts | 329° |
| 2026-05-06 09:49 | 52.79264 | -0.70335 | 31378 ft | 387 kts | 328° |
| 2026-05-06 09:50 | 52.81614 | -0.72470 | 31037 ft | 384 kts | 328° |
| 2026-05-06 09:50 | 52.83911 | -0.74560 | 30680 ft | 381 kts | 328° |
| 2026-05-06 09:50 | 52.86230 | -0.76672 | 30340 ft | 378 kts | 328° |
| 2026-05-06 09:50 | 52.88533 | -0.78774 | 29986 ft | 376 kts | 328° |
| 2026-05-06 09:51 | 52.90817 | -0.80859 | 29578 ft | 374 kts | 328° |
| 2026-05-06 09:51 | 52.93087 | -0.82935 | 29228 ft | 370 kts | 328° |
| 2026-05-06 09:51 | 52.95329 | -0.84987 | 28860 ft | 367 kts | 328° |
| 2026-05-06 09:51 | 52.97564 | -0.87034 | 28494 ft | 365 kts | 328° |
| 2026-05-06 09:52 | 52.99781 | -0.89067 | 28145 ft | 362 kts | 328° |
| 2026-05-06 09:52 | 53.01980 | -0.91086 | 28055 ft | 363 kts | 328° |
| 2026-05-06 09:52 | 53.06403 | -0.95147 | 28010 ft | 355 kts | 328° |
| 2026-05-06 09:53 | 53.08530 | -0.97098 | 28007 ft | 342 kts | 328° |
| 2026-05-06 09:53 | 53.10577 | -0.98979 | 28008 ft | 331 kts | 328° |
| 2026-05-06 09:53 | 53.14671 | -1.02762 | 28065 ft | 349 kts | 328° |
| 2026-05-06 09:54 | 53.16814 | -1.04749 | 28062 ft | 363 kts | 328° |
| 2026-05-06 09:54 | 53.19096 | -1.06753 | 28053 ft | 377 kts | 330° |
| 2026-05-06 09:54 | 53.23833 | -1.10522 | 27740 ft | 373 kts | 332° |
| 2026-05-06 09:55 | 53.26195 | -1.12367 | 27284 ft | 373 kts | 332° |
| 2026-05-06 09:55 | 53.28507 | -1.14184 | 27243 ft | 362 kts | 331° |
| 2026-05-06 09:55 | 53.30780 | -1.15986 | 27162 ft | 372 kts | 331° |
| 2026-05-06 09:55 | 53.33155 | -1.17887 | 27090 ft | 383 kts | 331° |
| 2026-05-06 09:56 | 53.35578 | -1.19834 | 27016 ft | 387 kts | 331° |
| 2026-05-06 09:56 | 53.38001 | -1.21783 | 26926 ft | 385 kts | 331° |
| 2026-05-06 09:56 | 53.40417 | -1.23730 | 26859 ft | 384 kts | 331° |
| 2026-05-06 09:56 | 53.42818 | -1.25668 | 26784 ft | 382 kts | 331° |
| 2026-05-06 09:57 | 53.45215 | -1.27607 | 26717 ft | 381 kts | 331° |
| 2026-05-06 09:57 | 53.47597 | -1.29537 | 26648 ft | 380 kts | 331° |
| 2026-05-06 09:57 | 53.49976 | -1.31468 | 26591 ft | 380 kts | 331° |
| 2026-05-06 09:57 | 53.52332 | -1.33383 | 26517 ft | 379 kts | 331° |
| 2026-05-06 09:58 | 53.54741 | -1.35344 | 26444 ft | 380 kts | 331° |
| 2026-05-06 09:58 | 53.57090 | -1.37257 | 26376 ft | 380 kts | 331° |
| 2026-05-06 09:58 | 53.59480 | -1.39207 | 26321 ft | 381 kts | 331° |
| 2026-05-06 09:58 | 53.61872 | -1.41161 | 26236 ft | 383 kts | 331° |
| 2026-05-06 09:59 | 53.64267 | -1.43119 | 26157 ft | 378 kts | 331° |
| 2026-05-06 09:59 | 53.66599 | -1.45025 | 26073 ft | 367 kts | 331° |
| 2026-05-06 09:59 | 53.68871 | -1.46884 | 26006 ft | 357 kts | 331° |
| 2026-05-06 09:59 | 53.71050 | -1.48669 | 25937 ft | 347 kts | 331° |
| 2026-05-06 10:00 | 53.73206 | -1.50440 | 25899 ft | 344 kts | 330° |
| 2026-05-06 10:00 | 53.75362 | -1.52217 | 25846 ft | 346 kts | 330° |
| 2026-05-06 10:00 | 53.77538 | -1.54013 | 25781 ft | 348 kts | 330° |
| 2026-05-06 10:00 | 53.79719 | -1.55813 | 25715 ft | 349 kts | 330° |
| 2026-05-06 10:01 | 53.81908 | -1.57622 | 25657 ft | 351 kts | 330° |
| 2026-05-06 10:01 | 53.84111 | -1.59443 | 25583 ft | 351 kts | 330° |
| 2026-05-06 10:01 | 53.86312 | -1.61265 | 25515 ft | 351 kts | 330° |
| 2026-05-06 10:01 | 53.88512 | -1.63087 | 25446 ft | 351 kts | 330° |
| 2026-05-06 10:02 | 53.90707 | -1.64907 | 25378 ft | 350 kts | 330° |
| 2026-05-06 10:02 | 53.92861 | -1.66695 | 25312 ft | 349 kts | 330° |
| 2026-05-06 10:02 | 53.95036 | -1.68503 | 25251 ft | 347 kts | 330° |
| 2026-05-06 10:02 | 53.97207 | -1.70310 | 25155 ft | 346 kts | 330° |
| 2026-05-06 10:03 | 53.99361 | -1.72104 | 25079 ft | 344 kts | 330° |
| 2026-05-06 10:03 | 54.01499 | -1.73886 | 24979 ft | 337 kts | 330° |
| 2026-05-06 10:03 | 54.03543 | -1.75759 | 24535 ft | 332 kts | 326° |
| 2026-05-06 10:03 | 54.05504 | -1.77817 | 23920 ft | 332 kts | 324° |
| 2026-05-06 10:04 | 54.07460 | -1.79905 | 23255 ft | 333 kts | 325° |
| 2026-05-06 10:04 | 54.09424 | -1.81973 | 22673 ft | 329 kts | 326° |
| 2026-05-06 10:04 | 54.11367 | -1.83997 | 22134 ft | 325 kts | 326° |
| 2026-05-06 10:04 | 54.13367 | -1.85768 | 21555 ft | 326 kts | 340° |
| 2026-05-06 10:05 | 54.15619 | -1.86267 | 20975 ft | 331 kts | 2° |
| 2026-05-06 10:05 | 54.17895 | -1.85682 | 20468 ft | 329 kts | 7° |
| 2026-05-06 10:05 | 54.20112 | -1.84960 | 19946 ft | 327 kts | 8° |
| 2026-05-06 10:05 | 54.22337 | -1.84215 | 19435 ft | 324 kts | 8° |
| 2026-05-06 10:06 | 54.24548 | -1.83484 | 18940 ft | 322 kts | 7° |
| 2026-05-06 10:06 | 54.26747 | -1.82771 | 18412 ft | 321 kts | 7° |
| 2026-05-06 10:06 | 54.28941 | -1.82070 | 17868 ft | 318 kts | 7° |
| 2026-05-06 10:06 | 54.31105 | -1.81384 | 17366 ft | 315 kts | 7° |
| 2026-05-06 10:07 | 54.33247 | -1.80708 | 16854 ft | 312 kts | 7° |
| 2026-05-06 10:07 | 54.35372 | -1.80039 | 16527 ft | 307 kts | 7° |
| 2026-05-06 10:07 | 54.37467 | -1.79378 | 16303 ft | 305 kts | 7° |
| 2026-05-06 10:07 | 54.39551 | -1.78721 | 16131 ft | 303 kts | 7° |
| 2026-05-06 10:08 | 54.41643 | -1.78062 | 15605 ft | 312 kts | 7° |
| 2026-05-06 10:08 | 54.43781 | -1.77388 | 15015 ft | 319 kts | 7° |
| 2026-05-06 10:08 | 54.45977 | -1.76693 | 14350 ft | 322 kts | 8° |
| 2026-05-06 10:08 | 54.48189 | -1.75991 | 13673 ft | 323 kts | 8° |
| 2026-05-06 10:09 | 54.50396 | -1.75290 | 12955 ft | 322 kts | 8° |
| 2026-05-06 10:09 | 54.52592 | -1.74592 | 12380 ft | 318 kts | 8° |
| 2026-05-06 10:09 | 54.54715 | -1.73914 | 12160 ft | 302 kts | 8° |
| 2026-05-06 10:09 | 54.56734 | -1.73268 | 12071 ft | 284 kts | 8° |
| 2026-05-06 10:10 | 54.58598 | -1.72672 | 12054 ft | 266 kts | 8° |
| 2026-05-06 10:10 | 54.60357 | -1.72111 | 11971 ft | 251 kts | 7° |
| 2026-05-06 10:10 | 54.62060 | -1.71573 | 11638 ft | 249 kts | 7° |
| 2026-05-06 10:10 | 54.63768 | -1.71037 | 11190 ft | 250 kts | 8° |
| 2026-05-06 10:11 | 54.65475 | -1.70489 | 10787 ft | 248 kts | 8° |
| 2026-05-06 10:11 | 54.67165 | -1.69944 | 10389 ft | 245 kts | 8° |
| 2026-05-06 10:11 | 54.68854 | -1.69783 | 9855 ft | 244 kts | 347° |
| 2026-05-06 10:11 | 54.70353 | -1.71096 | 9338 ft | 244 kts | 319° |
| 2026-05-06 10:12 | 54.71395 | -1.73385 | 9186 ft | 245 kts | 303° |
| 2026-05-06 10:12 | 54.72221 | -1.75905 | 9043 ft | 241 kts | 301° |
| 2026-05-06 10:12 | 54.73011 | -1.78431 | 8945 ft | 235 kts | 301° |
| 2026-05-06 10:12 | 54.73794 | -1.80903 | 8507 ft | 235 kts | 300° |
| 2026-05-06 10:13 | 54.74580 | -1.83359 | 7987 ft | 231 kts | 301° |
| 2026-05-06 10:13 | 54.75364 | -1.85793 | 7323 ft | 232 kts | 301° |
| 2026-05-06 10:13 | 54.76156 | -1.88247 | 6721 ft | 233 kts | 301° |
| 2026-05-06 10:13 | 54.76947 | -1.90689 | 6322 ft | 230 kts | 303° |
| 2026-05-06 10:14 | 54.78024 | -1.92633 | 5813 ft | 225 kts | 332° |
| 2026-05-06 10:14 | 54.79451 | -1.93724 | 5568 ft | 226 kts | 341° |
| 2026-05-06 10:14 | 54.80926 | -1.94678 | 5353 ft | 233 kts | 341° |
| 2026-05-06 10:14 | 54.82449 | -1.95660 | 5089 ft | 232 kts | 341° |
| 2026-05-06 10:15 | 54.83959 | -1.96565 | 4894 ft | 227 kts | 350° |
| 2026-05-06 10:15 | 54.85505 | -1.96695 | 4731 ft | 219 kts | 4° |
| 2026-05-06 10:15 | 54.86997 | -1.96680 | 4494 ft | 208 kts | 3° |
| 2026-05-06 10:15 | 54.88403 | -1.96697 | 4301 ft | 196 kts | 2° |
| 2026-05-06 10:16 | 54.89726 | -1.96722 | 4132 ft | 186 kts | 2° |
| 2026-05-06 10:16 | 54.91005 | -1.96750 | 3981 ft | 181 kts | 2° |
| 2026-05-06 10:16 | 54.92263 | -1.96778 | 3841 ft | 181 kts | 2° |
| 2026-05-06 10:16 | 54.93520 | -1.96728 | 3695 ft | 179 kts | 14° |
| 2026-05-06 10:17 | 54.94697 | -1.96038 | 3549 ft | 180 kts | 22° |
| 2026-05-06 10:17 | 54.95878 | -1.95292 | 3348 ft | 179 kts | 22° |
| 2026-05-06 10:17 | 54.96921 | -1.94213 | 3143 ft | 173 kts | 55° |
| 2026-05-06 10:17 | 54.97470 | -1.92388 | 2950 ft | 170 kts | 61° |
| 2026-05-06 10:18 | 54.98007 | -1.90635 | 2746 ft | 161 kts | 62° |
| 2026-05-06 10:18 | 54.98487 | -1.88948 | 2539 ft | 149 kts | 64° |
| 2026-05-06 10:18 | 54.98920 | -1.87359 | 2376 ft | 143 kts | 65° |
| 2026-05-06 10:18 | 54.99338 | -1.85797 | 2198 ft | 141 kts | 65° |
| 2026-05-06 10:19 | 54.99747 | -1.84252 | 1990 ft | 139 kts | 65° |
| 2026-05-06 10:19 | 55.00152 | -1.82719 | 1822 ft | 141 kts | 65° |
| 2026-05-06 10:19 | 55.00563 | -1.81164 | 1642 ft | 140 kts | 65° |
| 2026-05-06 10:19 | 55.00967 | -1.79635 | 1456 ft | 137 kts | 65° |
| 2026-05-06 10:20 | 55.01357 | -1.78133 | 1252 ft | 140 kts | 65° |
| 2026-05-06 10:20 | 55.01770 | -1.76573 | 1070 ft | 141 kts | 65° |
| 2026-05-06 10:20 | 55.02186 | -1.75006 | 850 ft | 144 kts | 64° |
| 2026-05-06 10:20 | 55.02600 | -1.73438 | 681 ft | 139 kts | 63° |
| 2026-05-06 10:21 | 55.03008 | -1.71935 | 494 ft | 135 kts | 64° |
| 2026-05-06 10:21 | 55.03403 | -1.70441 | 303 ft | 135 kts | 64° |
| 2026-05-06 10:21 | 55.03775 | -1.69051 | 252 ft | 106 kts | 66° |
| 2026-05-06 10:21 | 55.03979 | -1.68264 | 247 ft | 40 kts | 65° |
| 2026-05-06 10:22 | 55.04094 | -1.67831 | 246 ft | 37 kts | 64° |
| 2026-05-06 10:22 | 55.04189 | -1.67478 | 242 ft | 25 kts | 64° |
| 2026-05-06 10:22 | 55.04284 | -1.67372 | 240 ft | 18 kts | 342° |
| 2026-05-06 10:22 | 55.04331 | -1.67553 | 242 ft | 17 kts | 270° |
| 2026-05-06 10:23 | 55.04299 | -1.67750 | 244 ft | 17 kts | 245° |
| 2026-05-06 10:23 | 55.04249 | -1.67944 | 246 ft | 21 kts | 246° |
| 2026-05-06 10:23 | 55.04174 | -1.68225 | 247 ft | 30 kts | 245° |
| 2026-05-06 10:23 | 55.04075 | -1.68600 | 248 ft | 36 kts | 245° |
| 2026-05-06 10:24 | 55.03970 | -1.68995 | 251 ft | 35 kts | 245° |
| 2026-05-06 10:24 | 55.03872 | -1.69365 | 254 ft | 32 kts | 245° |
| 2026-05-06 10:24 | 55.03798 | -1.69708 | 257 ft | 29 kts | 256° |
| 2026-05-06 10:24 | 55.03772 | -1.70050 | 260 ft | 28 kts | 268° |
| 2026-05-06 10:25 | 55.03780 | -1.70337 | 266 ft | 14 kts | 275° |
| 2026-05-06 10:25 | 55.03782 | -1.70493 | 266 ft | 12 kts | 246° |
| 2026-05-06 10:25 | 55.03752 | -1.70561 | 266 ft | 1 kts | 228° |
| 2026-05-06 10:25 | 55.03741 | -1.70582 | 266 ft | 3 kts | 227° |
| 2026-05-06 10:26 | 55.03734 | -1.70595 | 266 ft | 1 kts | 227° |
| 2026-05-06 10:26 | 55.03733 | -1.70597 | 266 ft | 0 kts | 227° |